createdAt,value
2022-11-28T00:01:36.087Z,16.80
2022-11-28T00:04:04.857Z,16.73
2022-11-28T00:06:32.224Z,16.43
2022-11-28T00:09:00.668Z,15.73
2022-11-28T00:11:27.883Z,17.10
2022-11-28T00:13:55.494Z,16.03
2022-11-28T00:16:23.623Z,16.23
2022-11-28T00:18:52.550Z,15.07
2022-11-28T00:21:20.456Z,15.57
2022-11-28T00:23:48.908Z,15.83
2022-11-28T00:26:22.811Z,17.57
2022-11-28T00:28:50.539Z,15.90
2022-11-28T00:31:22.570Z,17.20
2022-11-28T00:33:49.867Z,15.33
2022-11-28T00:36:18.212Z,15.87
2022-11-28T00:38:45.722Z,16.70
2022-11-28T00:41:15.714Z,16.00
2022-11-28T00:43:44.493Z,15.10
2022-11-28T00:46:13.234Z,14.90
2022-11-28T00:48:40.841Z,16.20
2022-11-28T00:51:09.389Z,15.90
2022-11-28T00:53:37.405Z,16.03
2022-11-28T00:56:05.732Z,16.13
2022-11-28T00:58:34.641Z,15.60
2022-11-28T01:01:27.122Z,15.10
2022-11-28T01:03:56.190Z,16.17
2022-11-28T01:06:32.018Z,16.67
2022-11-28T01:09:23.189Z,16.47
2022-11-28T01:11:52.428Z,16.47
2022-11-28T01:14:24.382Z,15.40
2022-11-28T01:16:52.117Z,15.70
2022-11-28T01:19:19.917Z,16.60
2022-11-28T01:21:47.269Z,16.93
2022-11-28T01:24:15.009Z,16.50
2022-11-28T01:26:42.781Z,16.27
2022-11-28T01:29:10.242Z,15.90
2022-11-28T01:31:38.311Z,16.33
2022-11-28T01:34:05.486Z,15.67
2022-11-28T01:36:32.663Z,17.30
2022-11-28T01:38:59.825Z,16.63
2022-11-28T01:41:28.059Z,16.53
2022-11-28T01:44:06.665Z,16.60
2022-11-28T01:46:35.857Z,16.50
2022-11-28T01:49:12.828Z,15.57
2022-11-28T01:51:46.018Z,16.50
2022-11-28T01:54:14.962Z,15.90
2022-11-28T01:56:51.095Z,16.50
2022-11-28T01:59:20.372Z,16.00
2022-11-28T02:01:47.680Z,16.13
2022-11-28T02:04:15.213Z,16.50
2022-11-28T02:06:42.844Z,16.90
2022-11-28T02:09:14.680Z,17.17
2022-11-28T02:12:13.430Z,16.40
2022-11-28T02:15:00.190Z,16.23
2022-11-28T02:17:50.258Z,16.40
2022-11-28T02:20:43.578Z,16.10
2022-11-28T02:23:51.851Z,17.20
2022-11-28T02:26:50.017Z,15.77
2022-11-28T02:29:41.157Z,17.17
2022-11-28T02:32:45.802Z,16.13
2022-11-28T02:35:38.069Z,16.80
2022-11-28T02:38:23.552Z,16.90
2022-11-28T02:40:50.634Z,17.83
2022-11-28T02:43:50.280Z,16.27
2022-11-28T02:46:30.001Z,17.57
2022-11-28T02:49:02.997Z,17.27
2022-11-28T02:51:55.337Z,17.23
2022-11-28T02:54:24.789Z,17.00
2022-11-28T02:56:53.510Z,16.63
2022-11-28T02:59:27.715Z,18.30
2022-11-28T03:01:55.187Z,16.73
2022-11-28T03:04:48.729Z,17.67
2022-11-28T03:07:31.138Z,17.00
2022-11-28T03:10:12.006Z,16.40
2022-11-28T03:13:00.448Z,16.70
2022-11-28T03:15:44.282Z,15.63
2022-11-28T03:18:22.703Z,17.03
2022-11-28T03:21:05.678Z,18.17
2022-11-28T03:23:37.588Z,18.07
2022-11-28T03:26:32.310Z,16.37
2022-11-28T03:29:39.290Z,16.93
2022-11-28T03:32:11.864Z,17.37
2022-11-28T03:34:44.627Z,17.53
2022-11-28T03:37:17.913Z,18.20
2022-11-28T03:39:50.205Z,17.10
2022-11-28T03:42:22.388Z,19.70
2022-11-28T03:45:13.753Z,16.83
2022-11-28T03:47:47.233Z,16.53
2022-11-28T03:50:20.392Z,16.37
2022-11-28T03:52:56.226Z,16.83
2022-11-28T03:55:30.377Z,17.03
2022-11-28T03:58:02.573Z,18.97
2022-11-28T04:00:30.479Z,19.10
2022-11-28T04:03:17.640Z,19.83
2022-11-28T04:05:49.402Z,17.97
2022-11-28T04:08:29.399Z,19.93
2022-11-28T04:11:33.703Z,23.90
2022-11-28T04:14:12.944Z,27.13
2022-11-28T04:17:05.320Z,22.23
2022-11-28T04:19:47.318Z,23.77
2022-11-28T04:22:44.097Z,22.87
2022-11-28T04:25:16.395Z,20.27
2022-11-28T04:27:52.037Z,24.77
2022-11-28T04:30:19.389Z,20.90
2022-11-28T04:32:50.915Z,19.73
2022-11-28T04:35:32.861Z,21.13
2022-11-28T04:38:02.818Z,21.73
2022-11-28T04:40:33.030Z,20.10
2022-11-28T04:43:08.670Z,20.10
2022-11-28T04:45:43.443Z,18.43
2022-11-28T04:48:10.822Z,18.97
2022-11-28T04:50:59.866Z,18.73
2022-11-28T04:53:56.311Z,18.47
2022-11-28T04:56:38.806Z,18.73
2022-11-28T04:59:07.381Z,18.10
2022-11-28T05:01:36.131Z,18.23
2022-11-28T05:04:03.600Z,17.70
2022-11-28T05:06:34.313Z,18.80
2022-11-28T05:09:01.623Z,19.17
2022-11-28T05:11:29.261Z,18.30
2022-11-28T05:13:56.553Z,21.60
2022-11-28T05:16:23.817Z,21.93
2022-11-28T05:18:51.015Z,21.50
2022-11-28T05:21:18.187Z,18.60
2022-11-28T05:23:45.739Z,21.07
2022-11-28T05:26:16.160Z,19.13
2022-11-28T05:28:45.601Z,20.63
2022-11-28T05:31:13.721Z,19.77
2022-11-28T05:33:41.011Z,18.93
2022-11-28T05:36:13.204Z,19.43
2022-11-28T05:38:41.940Z,18.63
2022-11-28T05:41:09.989Z,16.70
2022-11-28T05:43:37.296Z,18.40
2022-11-28T05:46:06.672Z,17.93
2022-11-28T05:48:33.948Z,16.53
2022-11-28T05:51:03.691Z,15.83
2022-11-28T05:53:30.837Z,17.73
2022-11-28T05:55:58.221Z,18.33
2022-11-28T05:58:25.837Z,17.30
2022-11-28T06:00:52.999Z,18.53
2022-11-28T06:03:20.158Z,18.43
2022-11-28T06:05:48.143Z,17.60
2022-11-28T06:08:15.901Z,16.87
2022-11-28T06:10:43.178Z,17.47
2022-11-28T06:13:10.409Z,17.83
2022-11-28T06:15:38.635Z,18.20
2022-11-28T06:18:06.143Z,17.77
2022-11-28T06:20:35.682Z,17.47
2022-11-28T06:23:02.808Z,17.87
2022-11-28T06:25:30.005Z,18.27
2022-11-28T06:27:57.151Z,15.70
2022-11-28T06:30:24.370Z,18.27
2022-11-28T06:32:51.547Z,16.03
2022-11-28T06:35:18.685Z,20.00
2022-11-28T06:37:45.829Z,18.30
2022-11-28T06:40:13.422Z,16.20
2022-11-28T06:42:40.649Z,17.27
2022-11-28T06:45:09.169Z,17.37
2022-11-28T06:47:36.281Z,19.27
2022-11-28T06:50:03.660Z,18.77
2022-11-28T06:52:30.831Z,16.00
2022-11-28T06:54:57.963Z,16.87
2022-11-28T06:57:25.202Z,16.77
2022-11-28T06:59:52.387Z,17.93
2022-11-28T07:02:19.787Z,16.47
2022-11-28T07:04:47.004Z,17.37
2022-11-28T07:07:16.644Z,16.17
2022-11-28T07:09:44.387Z,17.53
2022-11-28T07:12:11.741Z,16.17
2022-11-28T07:14:39.140Z,16.80
2022-11-28T07:17:06.361Z,19.07
2022-11-28T07:19:34.282Z,18.00
2022-11-28T07:22:01.539Z,19.27
2022-11-28T07:24:30.018Z,17.13
2022-11-28T07:26:57.243Z,16.60
2022-11-28T07:29:24.592Z,17.03
2022-11-28T07:31:52.027Z,16.90
2022-11-28T07:34:19.242Z,18.67
2022-11-28T07:36:46.420Z,16.27
2022-11-28T07:39:16.015Z,17.97
2022-11-28T07:41:43.484Z,17.07
2022-11-28T07:44:11.580Z,19.83
2022-11-28T07:46:39.557Z,18.00
2022-11-28T07:49:06.779Z,17.20
2022-11-28T07:51:34.685Z,16.73
2022-11-28T07:54:03.243Z,18.63
2022-11-28T07:56:57.264Z,16.73
2022-11-28T07:59:22.924Z,15.60
2022-11-28T08:01:50.175Z,16.03
2022-11-28T08:04:17.549Z,16.27
2022-11-28T08:06:44.971Z,16.47
2022-11-28T08:09:12.284Z,17.60
2022-11-28T08:11:39.825Z,16.53
2022-11-28T08:14:07.222Z,16.03
2022-11-28T08:16:34.780Z,18.07
2022-11-28T08:19:02.846Z,15.73
2022-11-28T08:21:35.192Z,19.77
2022-11-28T08:24:04.350Z,17.07
2022-11-28T08:26:32.845Z,15.97
2022-11-28T08:29:02.321Z,15.97
2022-11-28T08:31:32.550Z,17.33
2022-11-28T08:34:01.879Z,17.80
2022-11-28T08:36:29.632Z,15.53
2022-11-28T08:41:47.128Z,15.60
2022-11-28T08:44:14.344Z,14.87
2022-11-28T08:46:41.570Z,17.60
2022-11-28T08:49:08.694Z,16.07
2022-11-28T08:51:37.052Z,15.87
2022-11-28T08:54:04.381Z,18.67
2022-11-28T08:56:31.798Z,15.43
2022-11-28T08:58:59.967Z,16.77
2022-11-28T09:01:27.770Z,17.43
2022-11-28T09:03:56.158Z,14.97
2022-11-28T09:06:24.112Z,14.77
2022-11-28T09:08:52.238Z,14.03
2022-11-28T09:11:21.678Z,14.50
2022-11-28T09:13:49.197Z,15.60
2022-11-28T09:16:16.915Z,14.90
2022-11-28T09:18:44.162Z,14.87
2022-11-28T09:21:14.364Z,15.30
2022-11-28T09:23:43.817Z,13.60
2022-11-28T09:26:12.706Z,13.40
2022-11-28T09:28:40.098Z,13.07
2022-11-28T09:31:08.082Z,12.40
2022-11-28T09:33:35.990Z,12.83
2022-11-28T09:36:08.088Z,12.23
2022-11-28T09:38:36.001Z,13.43
2022-11-28T09:41:04.333Z,12.03
2022-11-28T09:43:35.563Z,13.00
2022-11-28T09:46:09.833Z,12.27
2022-11-28T09:48:44.906Z,12.27
2022-11-28T09:51:42.565Z,17.90
2022-11-28T09:54:30.890Z,13.00
2022-11-28T09:56:58.916Z,37.83
2022-11-28T09:59:28.998Z,12.53
2022-11-28T10:02:20.949Z,11.77
2022-11-28T10:05:00.720Z,11.73
2022-11-28T10:07:42.873Z,12.47
2022-11-28T10:10:25.257Z,11.97
2022-11-28T10:13:02.898Z,13.43
2022-11-28T10:15:55.307Z,11.50
2022-11-28T10:18:28.228Z,12.60
2022-11-28T10:21:00.723Z,10.60
2022-11-28T10:23:39.564Z,11.23
2022-11-28T10:26:16.114Z,12.10
2022-11-28T10:28:48.376Z,10.53
2022-11-28T10:31:36.364Z,10.50
2022-11-28T10:34:19.425Z,13.23
2022-11-28T10:37:11.424Z,12.10
2022-11-28T10:39:44.936Z,12.20
2022-11-28T10:42:28.472Z,10.20
2022-11-28T10:45:17.929Z,13.83
2022-11-28T10:48:38.044Z,10.70
2022-11-28T10:51:26.719Z,12.27
2022-11-28T10:54:19.023Z,13.33
2022-11-28T10:57:07.134Z,11.47
2022-11-28T10:59:59.726Z,11.17
2022-11-28T11:02:46.334Z,10.97
2022-11-28T11:05:35.302Z,10.40
2022-11-28T11:08:22.855Z,9.93
2022-11-28T11:10:58.133Z,12.97
2022-11-28T11:13:31.046Z,9.53
2022-11-28T11:16:01.680Z,11.73
2022-11-28T11:18:34.870Z,10.03
2022-11-28T11:21:21.340Z,9.47
2022-11-28T11:23:49.945Z,10.17
2022-11-28T11:26:40.379Z,10.00
2022-11-28T11:29:21.289Z,10.67
2022-11-28T11:31:53.125Z,10.73
2022-11-28T11:34:23.431Z,9.47
2022-11-28T11:36:51.349Z,10.67
2022-11-28T11:39:25.415Z,11.10
2022-11-28T11:42:01.679Z,9.67
2022-11-28T11:44:34.083Z,9.47
2022-11-28T11:47:09.260Z,11.80
2022-11-28T11:49:48.183Z,10.57
2022-11-28T11:52:23.693Z,11.37
2022-11-28T11:54:58.578Z,11.20
2022-11-28T11:57:33.466Z,9.70
2022-11-28T12:00:22.562Z,8.70
2022-11-28T12:03:00.000Z,9.13
2022-11-28T12:05:46.396Z,9.37
2022-11-28T12:08:33.706Z,9.90
2022-11-28T12:11:15.918Z,10.10
2022-11-28T12:13:43.546Z,10.27
2022-11-28T12:16:30.168Z,11.60
2022-11-28T12:19:20.717Z,8.57
2022-11-28T12:21:59.763Z,9.47
2022-11-28T12:24:39.250Z,9.03
2022-11-28T12:27:09.437Z,10.17
2022-11-28T12:30:12.031Z,9.57
2022-11-28T12:33:06.555Z,10.47
2022-11-28T12:35:36.419Z,9.57
2022-11-28T12:38:12.027Z,9.33
2022-11-28T12:40:54.187Z,10.13
2022-11-28T12:43:46.436Z,11.43
2022-11-28T12:46:33.517Z,10.83
2022-11-28T12:49:25.579Z,11.93
2022-11-28T12:52:19.139Z,9.50
2022-11-28T12:55:22.848Z,9.63
2022-11-28T12:57:49.974Z,8.73
2022-11-28T13:00:20.362Z,8.57
2022-11-28T13:03:05.648Z,8.27
2022-11-28T13:06:03.965Z,9.47
2022-11-28T13:08:31.078Z,9.73
2022-11-28T13:11:04.038Z,9.10
2022-11-28T13:13:46.315Z,9.73
2022-11-28T13:16:41.626Z,8.03
2022-11-28T13:19:44.166Z,9.33
2022-11-28T13:22:14.947Z,9.57
2022-11-28T13:24:53.695Z,8.70
2022-11-28T13:27:46.444Z,9.67
2022-11-28T13:30:17.291Z,10.80
2022-11-28T13:33:18.663Z,10.03
2022-11-28T13:35:46.778Z,9.40
2022-11-28T13:38:47.170Z,10.63
2022-11-28T13:41:52.758Z,12.63
2022-11-28T13:44:23.260Z,11.13
2022-11-28T13:46:51.612Z,12.33
2022-11-28T13:49:24.001Z,12.50
2022-11-28T13:52:19.134Z,10.50
2022-11-28T13:54:52.868Z,13.43
2022-11-28T13:57:29.667Z,12.03
2022-11-28T14:00:07.058Z,14.83
2022-11-28T14:02:51.127Z,15.50
2022-11-28T14:05:41.558Z,14.67
2022-11-28T14:08:35.046Z,15.87
2022-11-28T14:11:27.581Z,16.50
2022-11-28T14:14:23.539Z,18.27
2022-11-28T14:16:56.851Z,15.60
2022-11-28T14:19:45.193Z,13.87
2022-11-28T14:22:33.750Z,11.03
2022-11-28T14:25:11.574Z,13.60
2022-11-28T14:27:40.008Z,13.93
2022-11-28T14:30:37.021Z,14.07
2022-11-28T14:33:43.571Z,12.17
2022-11-28T14:36:23.632Z,12.43
2022-11-28T14:39:15.447Z,11.17
2022-11-28T14:42:02.632Z,10.03
2022-11-28T14:44:56.127Z,8.77
2022-11-28T14:47:24.026Z,10.43
2022-11-28T14:50:13.950Z,8.80
2022-11-28T14:52:43.359Z,9.43
2022-11-28T14:55:13.077Z,9.97
2022-11-28T14:57:59.460Z,9.40
2022-11-28T15:00:28.845Z,7.80
2022-11-28T15:03:17.921Z,7.97
2022-11-28T15:05:58.882Z,9.50
2022-11-28T15:08:38.103Z,7.63
2022-11-28T15:11:14.553Z,9.30
2022-11-28T15:14:00.675Z,8.90
2022-11-28T15:16:32.532Z,12.10
2022-11-28T15:19:07.703Z,9.10
2022-11-28T15:21:46.646Z,9.70
2022-11-28T15:24:37.810Z,9.90
2022-11-28T15:27:07.989Z,13.47
2022-11-28T15:29:36.696Z,13.47
2022-11-28T15:32:05.373Z,12.20
2022-11-28T15:34:38.357Z,13.17
2022-11-28T15:37:17.580Z,11.20
2022-11-28T15:39:49.643Z,9.50
2022-11-28T15:42:34.685Z,10.97
2022-11-28T15:45:16.622Z,113.27
2022-11-28T15:47:46.553Z,45.00
2022-11-28T15:50:18.205Z,24.73
2022-11-28T15:52:58.288Z,15.17
2022-11-28T15:55:31.140Z,13.37
2022-11-28T15:58:17.707Z,13.00
2022-11-28T16:00:50.367Z,10.00
2022-11-28T16:03:23.634Z,9.93
2022-11-28T16:05:54.397Z,10.03
2022-11-28T16:08:33.305Z,9.80
2022-11-28T16:11:05.504Z,10.93
2022-11-28T16:13:34.311Z,8.93
2022-11-28T16:16:03.944Z,10.27
2022-11-28T16:18:31.532Z,12.80
2022-11-28T16:21:00.830Z,10.90
2022-11-28T16:23:34.634Z,10.90
2022-11-28T16:26:25.688Z,10.97
2022-11-28T16:29:08.121Z,12.33
2022-11-28T16:31:35.565Z,13.33
2022-11-28T16:34:03.563Z,11.87
2022-11-28T16:36:33.836Z,10.63
2022-11-28T16:39:27.183Z,12.07
2022-11-28T16:42:17.755Z,17.80
2022-11-28T16:44:45.070Z,23.27
2022-11-28T16:47:30.230Z,25.90
2022-11-28T16:50:15.399Z,24.27
2022-11-28T16:52:57.793Z,21.20
2022-11-28T16:55:31.584Z,20.70
2022-11-28T16:58:11.984Z,24.20
2022-11-28T17:00:42.479Z,25.37
2022-11-28T17:03:40.595Z,21.50
2022-11-28T17:06:34.298Z,16.70
2022-11-28T17:09:02.536Z,22.33
2022-11-28T17:11:38.614Z,17.90
2022-11-28T17:14:11.900Z,18.30
2022-11-28T17:16:41.803Z,19.17
2022-11-28T17:19:09.101Z,16.20
2022-11-28T17:21:45.355Z,16.23
2022-11-28T17:24:29.485Z,18.03
2022-11-28T17:26:56.686Z,17.23
2022-11-28T17:29:25.227Z,17.33
2022-11-28T17:31:55.041Z,16.00
2022-11-28T17:34:23.358Z,18.90
2022-11-28T17:36:51.373Z,19.93
2022-11-28T17:39:19.987Z,18.83
2022-11-28T17:41:47.429Z,19.70
2022-11-28T17:44:25.225Z,13.47
2022-11-28T17:46:55.209Z,12.43
2022-11-28T17:49:23.687Z,13.37
2022-11-28T17:51:52.396Z,11.60
2022-11-28T17:54:22.054Z,12.27
2022-11-28T17:56:51.199Z,13.93
2022-11-28T17:59:20.943Z,14.90
2022-11-28T18:01:48.909Z,15.00
2022-11-28T18:04:16.586Z,14.77
2022-11-28T18:06:44.907Z,16.33
2022-11-28T18:09:13.377Z,19.40
2022-11-28T18:11:41.829Z,21.77
2022-11-28T18:14:09.692Z,14.63
2022-11-28T18:16:37.310Z,13.03
2022-11-28T18:19:04.551Z,24.63
2022-11-28T18:21:33.082Z,22.80
2022-11-28T18:24:00.349Z,16.40
2022-11-28T18:26:27.799Z,14.83
2022-11-28T18:28:55.837Z,18.17
2022-11-28T18:31:27.970Z,17.53
2022-11-28T18:34:00.304Z,15.03
2022-11-28T18:36:31.338Z,14.50
2022-11-28T18:39:00.793Z,12.20
2022-11-28T18:41:29.464Z,12.97
2022-11-28T18:43:58.332Z,14.47
2022-11-28T18:46:27.481Z,15.70
2022-11-28T18:48:54.751Z,14.30
2022-11-28T18:51:25.983Z,15.20
2022-11-28T18:53:54.304Z,14.77
2022-11-28T18:56:22.224Z,13.10
2022-11-28T18:58:52.886Z,15.00
2022-11-28T19:01:28.113Z,16.83
2022-11-28T19:03:58.098Z,14.87
2022-11-28T19:06:26.202Z,17.90
2022-11-28T19:08:55.538Z,19.77
2022-11-28T19:11:23.286Z,16.03
2022-11-28T19:13:53.319Z,16.90
2022-11-28T19:16:27.061Z,18.87
2022-11-28T19:18:55.908Z,19.80
2022-11-28T19:21:26.356Z,23.87
2022-11-28T19:23:55.448Z,24.43
2022-11-28T19:26:25.003Z,32.30
2022-11-28T19:28:53.523Z,32.07
2022-11-28T19:31:29.591Z,30.53
2022-11-28T19:34:02.965Z,27.47
2022-11-28T19:36:34.615Z,34.43
2022-11-28T19:39:03.543Z,26.40
2022-11-28T19:41:32.178Z,26.70
2022-11-28T19:43:59.635Z,26.03
2022-11-28T19:46:35.036Z,24.83
2022-11-28T19:49:04.529Z,22.87
2022-11-28T19:51:31.787Z,20.23
2022-11-28T19:54:03.161Z,19.27
2022-11-28T19:56:32.300Z,27.63
2022-11-28T19:59:00.238Z,22.73
2022-11-28T20:01:28.541Z,25.00
2022-11-28T20:03:57.442Z,29.73
2022-11-28T20:06:27.816Z,45.87
2022-11-28T20:08:58.731Z,41.50
2022-11-28T20:11:31.861Z,47.43
2022-11-28T20:14:02.254Z,52.63
2022-11-28T20:16:31.544Z,42.97
2022-11-28T20:19:00.537Z,31.80
2022-11-28T20:21:29.567Z,27.00
2022-11-28T20:24:04.278Z,31.40
2022-11-28T20:26:36.136Z,26.00
2022-11-28T20:29:05.729Z,133.37
2022-11-28T20:31:41.969Z,55.87
2022-11-28T20:34:09.586Z,43.77
2022-11-28T20:36:38.084Z,47.30
2022-11-28T20:39:07.164Z,38.13
2022-11-28T20:41:34.307Z,24.13
2022-11-28T20:44:02.025Z,24.77
2022-11-28T20:46:32.643Z,23.97
2022-11-28T20:49:02.197Z,26.40
2022-11-28T20:51:31.189Z,28.23
2022-11-28T20:53:59.111Z,27.83
2022-11-28T20:56:30.020Z,25.77
2022-11-28T20:59:01.980Z,25.90
2022-11-28T21:01:34.901Z,32.90
2022-11-28T21:04:04.161Z,43.77
2022-11-28T21:06:31.678Z,42.13
2022-11-28T21:08:58.982Z,25.83
2022-11-28T21:11:50.506Z,21.63
2022-11-28T21:14:15.412Z,25.97
2022-11-28T21:16:43.599Z,29.80
2022-11-28T21:19:11.188Z,27.80
2022-11-28T21:21:39.730Z,27.87
2022-11-28T21:24:10.862Z,29.60
2022-11-28T21:26:42.416Z,28.17
2022-11-28T21:29:12.678Z,40.33
2022-11-28T21:31:43.023Z,40.87
2022-11-28T21:34:14.126Z,40.10
2022-11-28T21:36:42.425Z,39.63
2022-11-28T21:39:14.731Z,39.57
2022-11-28T21:41:42.226Z,33.10
2022-11-28T21:44:09.438Z,32.10
2022-11-28T21:46:36.758Z,31.60
2022-11-28T21:49:04.169Z,23.53
2022-11-28T21:51:31.386Z,18.33
2022-11-28T21:53:58.726Z,22.40
2022-11-28T21:56:26.508Z,23.87
2022-11-28T21:58:54.354Z,22.77
2022-11-28T22:01:21.720Z,23.70
2022-11-28T22:03:49.642Z,20.23
2022-11-28T22:06:23.984Z,20.30
2022-11-28T22:08:51.523Z,23.33
2022-11-28T22:11:20.132Z,21.33
2022-11-28T22:13:49.294Z,20.07
2022-11-28T22:16:25.159Z,26.33
2022-11-28T22:18:54.913Z,21.87
2022-11-28T22:21:50.676Z,23.10
2022-11-28T22:24:09.887Z,21.77
2022-11-28T22:26:37.975Z,21.97
2022-11-28T22:29:05.659Z,23.03
2022-11-28T22:31:33.222Z,18.47
2022-11-28T22:34:00.790Z,22.00
2022-11-28T22:36:28.711Z,19.03
2022-11-28T22:38:57.732Z,19.73
2022-11-28T22:41:29.211Z,16.90
2022-11-28T22:44:00.579Z,16.77
2022-11-28T22:46:28.921Z,20.70
2022-11-28T22:48:59.875Z,19.87
2022-11-28T22:51:28.318Z,20.37
2022-11-28T22:53:57.393Z,26.27
2022-11-28T22:56:27.695Z,20.33
2022-11-28T22:58:55.153Z,22.67
2022-11-28T23:01:29.622Z,18.40
2022-11-28T23:03:57.915Z,19.80
2022-11-28T23:06:27.992Z,20.30
2022-11-28T23:08:56.455Z,19.97
2022-11-28T23:11:32.729Z,20.60
2022-11-28T23:14:01.246Z,18.63
2022-11-28T23:16:31.110Z,17.87
2022-11-28T23:19:01.234Z,18.63
2022-11-28T23:21:36.384Z,16.83
2022-11-28T23:24:05.442Z,17.30
2022-11-28T23:26:34.270Z,17.97
2022-11-28T23:29:04.342Z,18.10
2022-11-28T23:31:34.458Z,19.33
2022-11-28T23:34:02.154Z,20.70
2022-11-28T23:36:38.476Z,19.73
2022-11-28T23:39:12.413Z,16.10
2022-11-28T23:41:39.670Z,19.60
2022-11-28T23:44:07.081Z,18.90
2022-11-28T23:46:34.486Z,21.13
2022-11-28T23:49:01.683Z,17.80
2022-11-28T23:51:28.891Z,20.07
2022-11-28T23:53:56.063Z,16.27
2022-11-28T23:56:26.262Z,18.00
2022-11-28T23:58:55.338Z,17.33
